createdAt,value
2022-12-19T00:05:18.179Z,-0.4
2022-12-19T00:11:41.284Z,-0.35
2022-12-19T00:18:01.410Z,-0.33
2022-12-19T00:24:24.241Z,-0.31
2022-12-19T00:30:44.189Z,-0.26
2022-12-19T00:37:07.293Z,-0.22
2022-12-19T00:43:27.153Z,-0.17
2022-12-19T00:49:50.461Z,-0.11
2022-12-19T00:56:10.478Z,-0.07
2022-12-19T01:02:33.381Z,-0.02
2022-12-19T01:08:53.161Z,0
2022-12-19T01:15:16.329Z,0.03
2022-12-19T01:21:36.239Z,0.08
2022-12-19T01:27:59.237Z,0.12
2022-12-19T01:34:19.362Z,0.16
2022-12-19T01:40:42.167Z,0.24
2022-12-19T01:47:02.149Z,0.32
2022-12-19T01:53:25.359Z,0.37
2022-12-19T01:59:45.242Z,0.39
2022-12-19T02:06:08.185Z,0.39
2022-12-19T02:12:28.390Z,0.37
2022-12-19T02:18:51.205Z,0.34
2022-12-19T02:25:11.209Z,0.34
2022-12-19T02:31:34.390Z,0.36
2022-12-19T02:37:54.160Z,0.38
2022-12-19T02:44:17.168Z,0.39
2022-12-19T02:50:37.290Z,0.38
2022-12-19T02:57:00.208Z,0.39
2022-12-19T03:03:20.316Z,0.39
2022-12-19T03:09:43.308Z,0.42
2022-12-19T03:16:03.339Z,0.45
2022-12-19T03:22:26.224Z,0.47
2022-12-19T03:28:46.332Z,0.5
2022-12-19T03:35:09.313Z,0.54
2022-12-19T03:41:29.325Z,0.59
2022-12-19T03:47:52.310Z,0.65
2022-12-19T03:54:12.351Z,0.7
2022-12-19T04:00:35.204Z,0.74
2022-12-19T04:23:59.293Z,0.91
2022-12-19T04:30:19.152Z,0.94
2022-12-19T04:36:42.179Z,0.99
2022-12-19T04:43:02.295Z,1.02
2022-12-19T04:49:25.190Z,1.05
2022-12-19T04:55:45.203Z,1.09
2022-12-19T05:02:08.466Z,1.12
2022-12-19T05:08:28.160Z,1.15
2022-12-19T05:14:51.201Z,1.16
2022-12-19T05:21:11.310Z,1.17
2022-12-19T05:27:34.166Z,1.18
2022-12-19T05:33:54.228Z,1.2
2022-12-19T05:40:17.399Z,1.24
2022-12-19T05:46:37.261Z,1.26
2022-12-19T05:53:00.269Z,1.29
2022-12-19T05:59:20.306Z,1.32
2022-12-19T06:05:43.279Z,1.34
2022-12-19T06:12:03.163Z,1.37
2022-12-19T06:18:26.318Z,1.4
2022-12-19T06:24:46.210Z,1.43
2022-12-19T06:31:09.231Z,1.46
2022-12-19T06:37:29.422Z,1.49
2022-12-19T06:43:53.716Z,1.52
2022-12-19T06:50:12.310Z,1.56
2022-12-19T06:56:35.309Z,1.59
2022-12-19T07:02:55.271Z,1.63
2022-12-19T07:09:18.252Z,1.66
2022-12-19T07:15:38.376Z,1.7
2022-12-19T07:22:01.238Z,1.73
2022-12-19T07:28:21.238Z,1.76
2022-12-19T07:34:44.383Z,1.79
2022-12-19T07:41:04.179Z,1.84
2022-12-19T07:47:27.212Z,1.89
2022-12-19T07:53:47.357Z,1.96
2022-12-19T08:00:10.207Z,1.99
2022-12-19T08:06:30.139Z,2.01
2022-12-19T08:12:53.347Z,2.03
2022-12-19T08:19:13.169Z,2.06
2022-12-19T08:25:36.232Z,2.1
2022-12-19T08:31:56.300Z,2.13
2022-12-19T08:38:19.146Z,2.18
2022-12-19T08:44:39.296Z,2.21
2022-12-19T08:51:02.345Z,2.24
2022-12-19T08:57:22.252Z,2.28
2022-12-19T09:03:49.072Z,2.33
2022-12-19T09:10:05.183Z,2.38
2022-12-19T09:16:28.335Z,2.46
2022-12-19T09:32:17.272Z,2.6
2022-12-19T09:38:38.178Z,2.7
2022-12-19T09:45:00.229Z,2.76
2022-12-19T09:51:20.358Z,2.81
2022-12-19T09:57:43.239Z,2.84
2022-12-19T10:04:03.228Z,2.88
2022-12-19T10:12:09.182Z,2.93
2022-12-19T10:17:01.971Z,3
2022-12-19T10:23:09.317Z,3.06
2022-12-19T10:29:29.294Z,3.13
2022-12-19T10:35:52.184Z,3.17
2022-12-19T10:42:12.272Z,3.24
2022-12-19T10:48:35.348Z,3.36
2022-12-19T10:54:55.456Z,3.49
2022-12-19T11:01:18.582Z,3.62
2022-12-19T11:07:38.267Z,3.66
2022-12-19T11:16:43.212Z,3.67
2022-12-19T11:25:49.330Z,3.72
2022-12-19T11:30:22.937Z,3.78
2022-12-19T11:33:04.302Z,3.81
2022-12-19T11:39:27.204Z,3.83
2022-12-19T11:45:47.303Z,3.84
2022-12-19T11:52:23.691Z,3.88
2022-12-19T11:58:30.162Z,3.96
2022-12-19T12:04:53.359Z,4.07
2022-12-19T12:12:10.337Z,4.21
2022-12-19T12:23:17.165Z,4.28
2022-12-19T12:31:35.351Z,4.32
2022-12-19T12:31:37.106Z,4.33
2022-12-19T12:43:02.337Z,4.37
2022-12-19T12:49:22.160Z,4.41
2022-12-19T12:55:45.157Z,4.43
2022-12-19T13:02:05.366Z,4.46
2022-12-19T13:08:28.277Z,4.49
2022-12-19T13:14:48.225Z,4.54
2022-12-19T13:21:11.278Z,4.59
2022-12-19T13:27:31.282Z,4.66
2022-12-19T13:33:55.703Z,4.7
2022-12-19T13:40:17.190Z,4.72
2022-12-19T13:46:37.398Z,4.72
2022-12-19T13:52:57.316Z,4.74
2022-12-19T13:59:20.400Z,4.76
2022-12-19T14:06:18.027Z,4.77
2022-12-19T14:13:36.849Z,4.79
2022-12-19T14:18:42.137Z,4.8
2022-12-19T14:35:47.787Z,4.86
2022-12-19T14:41:30.178Z,4.89
2022-12-19T14:51:43.112Z,4.89
2022-12-19T14:55:05.309Z,4.86
2022-12-19T15:01:08.684Z,4.81
2022-12-19T15:07:06.439Z,4.75
2022-12-19T15:13:47.484Z,4.7
2022-12-19T15:19:39.258Z,4.72
2022-12-19T15:26:04.303Z,4.76
2022-12-19T15:32:22.706Z,4.81
2022-12-19T15:38:46.240Z,4.87
2022-12-19T15:45:06.528Z,4.95
2022-12-19T15:51:29.323Z,4.99
2022-12-19T15:57:49.309Z,5
2022-12-19T16:04:12.641Z,5.02
2022-12-19T16:10:32.228Z,5.14
2022-12-19T16:16:56.284Z,5.29
2022-12-19T16:23:16.248Z,5.43
2022-12-19T16:29:41.765Z,5.53
2022-12-19T16:36:07.340Z,5.54
2022-12-19T16:42:22.153Z,5.54
2022-12-19T16:48:42.216Z,5.59
2022-12-19T16:55:05.215Z,5.63
2022-12-19T17:01:25.291Z,5.66
2022-12-19T17:07:48.223Z,5.69
2022-12-19T17:14:08.287Z,5.72
2022-12-19T17:20:31.171Z,5.75
2022-12-19T17:26:51.192Z,5.74
2022-12-19T17:33:14.178Z,5.71
2022-12-19T17:39:34.179Z,5.64
2022-12-19T17:45:57.315Z,5.6
2022-12-19T17:52:17.341Z,5.58
2022-12-19T17:58:40.298Z,5.56
2022-12-19T18:05:00.243Z,5.56
2022-12-19T18:11:23.198Z,5.61
2022-12-19T18:17:43.183Z,5.69
2022-12-19T18:24:06.510Z,5.77
2022-12-19T18:30:26.215Z,5.84
2022-12-19T18:36:49.289Z,5.88
2022-12-19T18:43:09.316Z,5.88
2022-12-19T18:49:32.173Z,5.87
2022-12-19T18:55:52.207Z,5.92
2022-12-19T19:02:15.484Z,5.99
2022-12-19T19:08:35.185Z,6.03
2022-12-19T19:14:58.248Z,6.06
2022-12-19T19:37:46.688Z,6.24
2022-12-19T19:44:06.175Z,6.33
2022-12-19T19:50:29.244Z,6.39
2022-12-19T19:56:49.205Z,6.43
2022-12-19T20:03:15.241Z,6.45
2022-12-19T20:09:32.166Z,6.47
2022-12-19T20:15:55.356Z,6.5
2022-12-19T20:22:15.224Z,6.56
2022-12-19T20:28:43.823Z,6.6
2022-12-19T20:34:58.294Z,6.62
2022-12-19T20:41:21.195Z,6.63
2022-12-19T20:47:41.188Z,6.65
2022-12-19T20:54:04.255Z,6.65
2022-12-19T21:00:24.214Z,6.65
2022-12-19T21:06:47.251Z,6.66
2022-12-19T21:13:07.267Z,6.71
2022-12-19T21:19:30.217Z,6.79
2022-12-19T21:25:50.197Z,6.88
2022-12-19T21:32:18.601Z,6.95
2022-12-19T21:38:33.185Z,7
2022-12-19T21:44:56.218Z,7.03
2022-12-19T21:51:16.231Z,7.06
2022-12-19T21:57:39.167Z,7.08
2022-12-19T22:03:59.235Z,7.1
2022-12-19T22:10:22.358Z,7.11
2022-12-19T22:16:42.394Z,7.15
2022-12-19T22:23:09.806Z,7.23
2022-12-19T22:29:25.207Z,7.29
2022-12-19T22:35:48.305Z,7.33
2022-12-19T22:42:08.203Z,7.41
2022-12-19T22:48:31.277Z,7.5
2022-12-19T22:54:51.236Z,7.56
2022-12-19T23:20:26.195Z,7.66
2022-12-19T23:26:46.157Z,7.68
2022-12-19T23:33:09.187Z,7.67
2022-12-19T23:39:29.249Z,7.67
2022-12-19T23:45:52.220Z,7.73
2022-12-19T23:52:12.194Z,7.82
2022-12-19T23:58:35.208Z,7.91
